Adrian, North Dakota
Current Conditions -  °F | °C
As of 5:56 PM on Wednesday 22 Oct 2014 (Local Time) from KJMS Reporting Station
Broken Clouds Broken Clouds  
Wind Chill: 13°   Ceiling: 11000
Heat Index: 13°   Visibility: 10mi
Dew Point: 11°   Wind: 7mph
Humidity: 84%   Direction: 200°SSW
Pressure: 29.85"   Gusts: NA
Location:  46.6526°N, 98.6214°W
Report Text: KJMS 222256Z AUTO 20006KT 10SM BKN110 13/11 A2985 RMK AO2 SLP109 T01330106
Loading
Personal Weather Stations






























Interactive Weather Map New forecast layout! Learn more

10-Day Weather Forecast

Advertisements
Track Severe Weather on mobile